Lookout Mountain, TN (37350)

1:23 PM EST on January 28, 2015 (GMT -0500)
Flintstone - Air Force Station | Change Station
CLOSE
Current Station
Personal Weather Station
Location: Lookout Mountain, GA
Elevation: 1890 ft
Nearby Weather Stations

Elev 1890 ft 34.96 °N, 85.38 °W | Updated 11 seconds ago

Clear
Clear
42.4 °F
Feels Like 42 °F
N
2.5
Wind Variable Wind from ENE
Gusts 5.3 mph

Today
High -- | Low -- °F
--% Chance of Precip.
Yesterday
High -- | Low -- °F
Precip. -- in
7:43 AM 6:05 PM
Waxing Gibbous, 66% visible
Pressure 30.32 in
Visibility 10.0 miles
Clouds Scattered Clouds 25000 ft
Windchill 42 °F
Dew Point 28 °F
Humidity 45%
Rainfall 0.00 in
Snow Depth Not available.
UV 4 out of 12
Pollen 1.20 out of 12
Air Quality Not available.
Flu Activity Not available.
METAR KCHA 281753Z 01005KT 10SM SCT250 07/M08 A3032 RMK AO2 SLP268 T00671083 10067 21006 58012

More Conditions Fewer Conditions

Pressure 30.32 in
Visibility 10.0 miles
Clouds Scattered Clouds 25000 ft
Windchill 42 °F
Dew Point 28 °F
Humidity 45%
Rainfall 0.00 in
Snow Depth Not available.
UV 4 out of 12
Pollen 1.20 out of 12
Air Quality Not available.
Flu Activity Not available.
METAR KCHA 281753Z 01005KT 10SM SCT250 07/M08 A3032 RMK AO2 SLP268 T00671083 10067 21006 58012

More Conditions Fewer Conditions

10-Day Weather Forecast

Almanac

Astronomy

Jan. 28, 2015 Rise Set
Actual Time
Civil Twilight
Nautical Twilight
Astronomical Twilight
Moon
Length of Visible Light
Length of Day
Tomorrow will be .
, % of the Moon is Illuminated

Today's Extremes

State Highs State Lows

Community

WunderPhotos

Upload Photos

1,791,237 photos uploaded!

WunderBlogs® & News

Nearby

Air Quality

  Air Quality AQ Index Pollutant
Not available.

Snow Depth

Station Depth Elevation

Earthquake Activity

City Distance Mag. Time & Date
Minimum magnitude displayed is 2.5.

Coastal Water Temperatures

Place Temperature

Nearby Weather Stations